createdAt,value
2023-09-01T00:01:06.261Z,20.32
2023-09-01T00:04:08.128Z,20.32
2023-09-01T00:07:10.094Z,20.33
2023-09-01T00:10:11.951Z,20.35
2023-09-01T00:13:14.060Z,20.40
2023-09-01T00:16:15.974Z,20.39
2023-09-01T00:19:17.686Z,20.43
2023-09-01T00:22:19.512Z,20.31
2023-09-01T00:25:21.246Z,20.29
2023-09-01T00:28:24.052Z,20.21
2023-09-01T00:31:25.751Z,20.18
2023-09-01T00:34:27.781Z,20.11
2023-09-01T00:37:29.807Z,20.03
2023-09-01T00:40:31.533Z,19.95
2023-09-01T00:43:33.517Z,19.85
2023-09-01T00:46:39.641Z,19.78
2023-09-01T00:49:46.738Z,19.64
2023-09-01T00:52:48.761Z,19.58
2023-09-01T00:55:52.488Z,19.56
2023-09-01T00:58:54.178Z,19.53
2023-09-01T01:01:56.142Z,19.53
2023-09-01T01:04:58.585Z,19.49
2023-09-01T01:08:16.603Z,19.42
2023-09-01T01:11:30.621Z,19.34
2023-09-01T01:14:41.251Z,19.22
2023-09-01T01:17:46.063Z,19.14
2023-09-01T01:20:50.775Z,19.17
2023-09-01T01:23:53.027Z,19.12
2023-09-01T01:26:54.648Z,19.09
2023-09-01T01:29:56.659Z,19.09
2023-09-01T01:32:58.490Z,19.06
2023-09-01T01:36:18.518Z,18.99
2023-09-01T01:39:26.403Z,19.04
2023-09-01T01:42:30.667Z,19.05
2023-09-01T01:45:33.004Z,19.03
2023-09-01T01:48:37.600Z,18.98
2023-09-01T01:51:39.311Z,18.99
2023-09-01T01:54:41.112Z,18.99
2023-09-01T01:57:43.138Z,18.99
2023-09-01T02:00:44.831Z,18.95
2023-09-01T02:03:46.560Z,18.88
2023-09-01T02:06:48.500Z,18.88
2023-09-01T02:09:50.263Z,18.77
2023-09-01T02:12:51.982Z,18.73
2023-09-01T02:15:54.579Z,18.65
2023-09-01T02:18:56.364Z,18.60
2023-09-01T02:21:58.094Z,18.51
2023-09-01T02:24:59.758Z,18.47
2023-09-01T02:28:01.432Z,18.46
2023-09-01T02:31:09.016Z,18.39
2023-09-01T02:34:11.372Z,18.33
2023-09-01T02:37:13.035Z,18.36
2023-09-01T02:40:14.775Z,18.28
2023-09-01T02:43:16.400Z,18.20
2023-09-01T02:46:18.474Z,18.27
2023-09-01T02:49:20.157Z,18.26
2023-09-01T02:52:21.858Z,18.26
2023-09-01T02:55:24.330Z,18.29
2023-09-01T02:58:26.745Z,18.31
2023-09-01T03:01:28.421Z,18.32
2023-09-01T03:04:30.030Z,18.30
2023-09-01T03:07:31.686Z,17.96
2023-09-01T03:10:33.466Z,18.20
2023-09-01T03:13:35.476Z,18.19
2023-09-01T03:16:38.230Z,18.20
2023-09-01T03:19:39.888Z,18.14
2023-09-01T03:22:41.902Z,18.09
2023-09-01T03:25:43.651Z,18.08
2023-09-01T03:28:45.406Z,18.01
2023-09-01T03:31:47.127Z,18.08
2023-09-01T03:34:49.155Z,18.17
2023-09-01T03:37:50.917Z,18.16
2023-09-01T03:40:52.752Z,18.00
2023-09-01T03:43:55.304Z,17.96
2023-09-01T03:46:57.513Z,18.03
2023-09-01T03:49:59.199Z,17.94
2023-09-01T03:53:00.860Z,18.00
2023-09-01T03:56:13.389Z,18.05
2023-09-01T03:59:15.144Z,18.06
2023-09-01T04:02:16.874Z,18.13
2023-09-01T04:05:18.654Z,18.21
2023-09-01T04:08:20.362Z,18.27
2023-09-01T04:11:22.107Z,18.33
2023-09-01T04:14:23.754Z,18.23
2023-09-01T04:17:25.475Z,18.18
2023-09-01T04:20:27.134Z,18.21
2023-09-01T04:23:29.111Z,18.35
2023-09-01T04:26:42.609Z,18.39
2023-09-01T04:29:59.254Z,18.26
2023-09-01T04:33:09.461Z,18.25
2023-09-01T04:36:11.222Z,18.29
2023-09-01T04:39:12.883Z,18.38
2023-09-01T04:42:14.744Z,18.30
2023-09-01T04:45:17.023Z,18.38
2023-09-01T04:48:18.751Z,18.51
2023-09-01T04:51:20.432Z,18.50
2023-09-01T04:54:22.167Z,18.58
2023-09-01T04:57:27.740Z,18.58
2023-09-01T05:00:29.355Z,18.69
2023-09-01T05:03:31.051Z,18.80
2023-09-01T05:06:32.785Z,18.85
2023-09-01T05:09:34.524Z,18.91
2023-09-01T05:12:36.486Z,18.98
2023-09-01T05:15:38.434Z,18.99
2023-09-01T05:18:40.107Z,19.04
2023-09-01T05:21:41.894Z,19.00
2023-09-01T05:24:43.722Z,19.07
2023-09-01T05:27:45.725Z,18.94
2023-09-01T05:30:47.494Z,19.03
2023-09-01T05:33:49.210Z,19.11
2023-09-01T05:36:51.022Z,19.06
2023-09-01T05:39:52.751Z,19.15
2023-09-01T05:42:54.550Z,19.18
2023-09-01T05:46:05.569Z,19.41
2023-09-01T05:49:07.327Z,19.84
2023-09-01T05:52:09.157Z,19.61
2023-09-01T05:55:10.998Z,19.62
2023-09-01T05:58:14.155Z,19.80
2023-09-01T06:01:22.651Z,19.88
2023-09-01T06:04:24.847Z,20.02
2023-09-01T06:07:26.768Z,19.90
2023-09-01T06:10:29.570Z,19.69
2023-09-01T06:13:31.840Z,19.67
2023-09-01T06:16:33.573Z,19.72
2023-09-01T06:19:35.366Z,19.71
2023-09-01T06:22:47.848Z,19.75
2023-09-01T06:25:54.261Z,19.67
2023-09-01T06:28:56.601Z,19.64
2023-09-01T06:31:58.393Z,19.74
2023-09-01T06:35:00.752Z,19.80
2023-09-01T06:38:06.813Z,19.82
2023-09-01T06:41:08.978Z,19.91
2023-09-01T06:44:11.048Z,20.30
2023-09-01T06:47:13.087Z,20.47
2023-09-01T06:50:14.819Z,20.90
2023-09-01T06:53:17.132Z,21.11
2023-09-01T06:56:22.002Z,21.05
2023-09-01T06:59:25.331Z,21.01
2023-09-01T07:02:27.416Z,20.84
2023-09-01T07:05:29.163Z,20.89
2023-09-01T07:08:31.729Z,20.96
2023-09-01T07:11:33.462Z,20.87
2023-09-01T07:14:35.688Z,20.96
2023-09-01T07:17:37.543Z,20.76
2023-09-01T07:20:39.783Z,20.96
2023-09-01T07:23:41.569Z,21.17
2023-09-01T07:26:43.338Z,21.30
2023-09-01T07:29:45.385Z,21.35
2023-09-01T07:32:47.112Z,21.40
2023-09-01T07:35:52.325Z,21.54
2023-09-01T07:38:54.116Z,21.58
2023-09-01T07:41:57.133Z,21.89
2023-09-01T07:45:01.713Z,22.02
2023-09-01T07:48:18.967Z,22.12
2023-09-01T07:51:23.085Z,21.97
2023-09-01T07:54:24.825Z,22.02
2023-09-01T07:57:26.812Z,22.14
2023-09-01T08:00:28.451Z,22.38
2023-09-01T08:03:30.256Z,22.60
2023-09-01T08:06:32.563Z,22.93
2023-09-01T08:09:34.591Z,22.95
2023-09-01T08:12:39.208Z,23.15
2023-09-01T08:15:41.878Z,23.38
2023-09-01T08:18:44.020Z,23.33
2023-09-01T08:21:45.678Z,23.41
2023-09-01T08:24:47.680Z,23.91
2023-09-01T08:27:49.634Z,24.13
2023-09-01T08:30:51.699Z,24.19
2023-09-01T08:33:54.072Z,24.15
2023-09-01T08:36:58.699Z,23.97
2023-09-01T08:40:00.907Z,23.85
2023-09-01T08:43:03.736Z,23.44
2023-09-01T08:49:11.394Z,23.37
2023-09-01T08:52:13.554Z,23.28
2023-09-01T08:55:17.163Z,23.12
2023-09-01T08:58:24.565Z,23.03
2023-09-01T09:01:26.302Z,23.03
2023-09-01T09:04:28.597Z,22.99
2023-09-01T09:07:30.626Z,23.00
2023-09-01T09:10:39.016Z,23.03
2023-09-01T09:13:41.567Z,23.12
2023-09-01T09:16:54.241Z,23.01
2023-09-01T09:19:57.144Z,23.16
2023-09-01T09:22:59.524Z,23.56
2023-09-01T09:26:06.232Z,23.79
2023-09-01T09:29:09.959Z,24.11
2023-09-01T09:32:23.072Z,24.06
2023-09-01T09:35:25.144Z,24.37
2023-09-01T09:38:42.371Z,24.48
2023-09-01T09:41:46.539Z,24.80
2023-09-01T09:44:48.515Z,24.93
2023-09-01T09:47:53.820Z,25.12
2023-09-01T09:50:59.715Z,25.06
2023-09-01T09:54:08.874Z,25.06
2023-09-01T09:57:21.512Z,25.29
2023-09-01T10:00:29.188Z,25.24
2023-09-01T10:03:32.885Z,25.57
2023-09-01T10:06:37.461Z,25.65
2023-09-01T10:09:39.542Z,25.88
2023-09-01T10:12:42.052Z,25.29
2023-09-01T10:15:49.847Z,25.47
2023-09-01T10:18:51.763Z,25.62
2023-09-01T10:21:53.607Z,25.68
2023-09-01T10:25:25.309Z,25.95
2023-09-01T10:28:30.287Z,25.69
2023-09-01T10:31:33.890Z,25.52
2023-09-01T10:34:38.080Z,25.65
2023-09-01T10:37:39.752Z,26.52
2023-09-01T10:40:45.583Z,26.64
2023-09-01T10:43:55.520Z,26.31
2023-09-01T10:47:17.156Z,27.35
2023-09-01T10:50:19.420Z,27.10
2023-09-01T10:53:32.085Z,26.38
2023-09-01T10:56:52.043Z,28.11
2023-09-01T10:59:53.736Z,26.85
2023-09-01T11:03:25.252Z,26.97
2023-09-01T11:06:26.898Z,29.58
2023-09-01T11:09:50.082Z,30.19
2023-09-01T11:12:51.811Z,28.14
2023-09-01T11:15:54.173Z,27.60
2023-09-01T11:19:01.902Z,27.16
2023-09-01T11:22:04.107Z,27.87
2023-09-01T11:25:09.715Z,29.14
2023-09-01T11:28:13.119Z,28.73
2023-09-01T11:31:15.753Z,27.98
2023-09-01T11:34:17.650Z,27.23
2023-09-01T11:37:35.347Z,27.62
2023-09-01T11:40:37.638Z,27.63
2023-09-01T11:43:40.763Z,27.28
2023-09-01T11:46:42.751Z,27.35
2023-09-01T11:49:45.067Z,27.42
2023-09-01T11:52:51.372Z,27.42
2023-09-01T11:55:54.025Z,29.20
2023-09-01T11:58:57.451Z,31.06
2023-09-01T12:02:00.326Z,30.65
2023-09-01T12:05:02.354Z,29.77
2023-09-01T12:08:05.392Z,28.77
2023-09-01T12:11:07.386Z,28.69
2023-09-01T12:14:23.507Z,30.16
2023-09-01T12:17:25.531Z,31.33
2023-09-01T12:20:27.669Z,30.70
2023-09-01T12:23:32.459Z,29.45
2023-09-01T12:26:34.203Z,29.05
2023-09-01T12:29:36.023Z,29.20
2023-09-01T12:32:38.284Z,28.97
2023-09-01T12:35:41.933Z,28.75
2023-09-01T12:38:43.646Z,28.39
2023-09-01T12:41:45.357Z,27.93
2023-09-01T12:44:47.342Z,27.40
2023-09-01T12:47:49.066Z,27.83
2023-09-01T12:51:09.475Z,27.85
2023-09-01T12:54:18.962Z,27.82
2023-09-01T12:57:21.814Z,28.10
2023-09-01T13:00:24.148Z,27.84
2023-09-01T13:03:26.003Z,27.74
2023-09-01T13:06:28.350Z,27.62
2023-09-01T13:09:30.044Z,27.70
2023-09-01T13:12:32.188Z,27.92
2023-09-01T13:15:34.015Z,27.95
2023-09-01T13:18:36.311Z,27.93
2023-09-01T13:21:37.974Z,28.07
2023-09-01T13:24:39.709Z,27.83
2023-09-01T13:27:41.469Z,27.90
2023-09-01T13:30:43.449Z,27.87
2023-09-01T13:33:45.143Z,27.64
2023-09-01T13:36:47.914Z,27.52
2023-09-01T13:39:49.950Z,27.36
2023-09-01T13:42:51.659Z,27.28
2023-09-01T13:45:54.949Z,27.24
2023-09-01T13:48:59.568Z,27.51
2023-09-01T13:52:01.340Z,27.56
2023-09-01T13:55:03.576Z,27.51
2023-09-01T13:58:05.236Z,27.76
2023-09-01T14:01:07.022Z,27.83
2023-09-01T14:04:08.817Z,27.79
2023-09-01T14:07:10.633Z,27.76
2023-09-01T14:10:12.467Z,27.65
2023-09-01T14:13:14.363Z,27.51
2023-09-01T14:16:16.367Z,27.47
2023-09-01T14:19:18.794Z,27.56
2023-09-01T14:22:20.858Z,27.98
2023-09-01T14:25:22.718Z,27.89
2023-09-01T14:28:24.712Z,27.78
2023-09-01T14:31:26.872Z,27.68
2023-09-01T14:34:28.743Z,27.67
2023-09-01T14:37:30.522Z,27.82
2023-09-01T14:40:33.128Z,27.99
2023-09-01T14:43:34.789Z,27.75
2023-09-01T14:46:36.565Z,27.81
2023-09-01T14:49:38.530Z,28.16
2023-09-01T14:52:40.285Z,28.37
2023-09-01T14:55:42.104Z,28.32
2023-09-01T14:58:43.777Z,27.99
2023-09-01T15:01:45.493Z,27.90
2023-09-01T15:04:47.583Z,27.84
2023-09-01T15:07:49.446Z,27.75
2023-09-01T15:10:53.250Z,27.55
2023-09-01T15:13:57.402Z,27.20
2023-09-01T15:16:59.074Z,27.00
2023-09-01T15:20:00.710Z,26.91
2023-09-01T15:23:02.397Z,26.91
2023-09-01T15:26:04.955Z,26.94
2023-09-01T15:29:06.726Z,26.89
2023-09-01T15:32:08.843Z,26.80
2023-09-01T15:35:22.118Z,26.72
2023-09-01T15:38:27.073Z,26.68
2023-09-01T15:41:28.739Z,26.63
2023-09-01T15:44:31.234Z,26.57
2023-09-01T15:47:32.905Z,26.52
2023-09-01T15:50:44.868Z,26.51
2023-09-01T15:53:47.702Z,26.48
2023-09-01T15:56:49.600Z,26.45
2023-09-01T15:59:52.486Z,26.41
2023-09-01T16:02:54.203Z,26.43
2023-09-01T16:05:58.726Z,26.42
2023-09-01T16:09:00.367Z,26.37
2023-09-01T16:12:04.350Z,26.35
2023-09-01T16:15:07.118Z,26.29
2023-09-01T16:18:09.314Z,26.20
2023-09-01T16:21:11.356Z,26.13
2023-09-01T16:24:12.961Z,26.09
2023-09-01T16:27:15.091Z,26.00
2023-09-01T16:30:17.007Z,25.92
2023-09-01T16:33:19.237Z,25.84
2023-09-01T16:36:20.963Z,25.76
2023-09-01T16:39:22.700Z,25.70
2023-09-01T16:42:24.417Z,25.61
2023-09-01T16:45:26.150Z,25.58
2023-09-01T16:48:27.845Z,25.52
2023-09-01T16:51:29.604Z,25.42
2023-09-01T16:54:31.359Z,25.35
2023-09-01T16:57:33.212Z,25.27
2023-09-01T17:00:35.053Z,25.21
2023-09-01T17:03:36.834Z,25.14
2023-09-01T17:06:41.774Z,25.09
2023-09-01T17:09:43.977Z,25.00
2023-09-01T17:12:48.570Z,24.95
2023-09-01T17:15:50.551Z,24.91
2023-09-01T17:18:52.211Z,24.87
2023-09-01T17:21:53.993Z,24.77
2023-09-01T17:24:56.004Z,24.70
2023-09-01T17:27:58.001Z,24.63
2023-09-01T17:30:59.788Z,24.57
2023-09-01T17:34:01.560Z,24.48
2023-09-01T17:37:03.346Z,24.41
2023-09-01T17:40:06.380Z,24.36
2023-09-01T17:43:10.221Z,24.29
2023-09-01T17:46:11.961Z,24.24
2023-09-01T17:49:14.296Z,24.19
2023-09-01T17:52:16.603Z,24.14
2023-09-01T17:55:20.954Z,24.10
2023-09-01T17:58:22.735Z,23.83
2023-09-01T18:01:25.316Z,23.98
2023-09-01T18:04:27.090Z,23.91
2023-09-01T18:07:28.991Z,23.87
2023-09-01T18:10:31.866Z,23.83
2023-09-01T18:13:34.433Z,23.77
2023-09-01T18:16:37.554Z,23.74
2023-09-01T18:19:39.460Z,23.69
2023-09-01T18:22:46.315Z,23.66
2023-09-01T18:25:48.216Z,23.64
2023-09-01T18:28:50.089Z,23.60
2023-09-01T18:31:55.932Z,23.60
2023-09-01T18:34:59.861Z,23.58
2023-09-01T18:38:01.550Z,23.55
2023-09-01T18:41:03.427Z,23.52
2023-09-01T18:44:07.110Z,23.50
2023-09-01T18:47:08.860Z,23.47
2023-09-01T18:50:12.546Z,23.41
2023-09-01T18:53:14.664Z,23.36
2023-09-01T18:56:20.244Z,23.35
2023-09-01T18:59:22.422Z,23.33
2023-09-01T19:02:37.490Z,23.31
2023-09-01T19:05:41.293Z,23.24
2023-09-01T19:08:43.383Z,23.19
2023-09-01T19:11:45.862Z,23.15
2023-09-01T19:14:47.822Z,23.12
2023-09-01T19:17:50.771Z,23.09
2023-09-01T19:20:53.156Z,23.07
2023-09-01T19:23:55.729Z,22.98
2023-09-01T19:26:59.141Z,22.95
2023-09-01T19:30:01.302Z,22.88
2023-09-01T19:33:04.040Z,22.83
2023-09-01T19:36:10.334Z,22.81
2023-09-01T19:39:12.533Z,22.78
2023-09-01T19:42:16.067Z,22.75
2023-09-01T19:45:27.943Z,22.70
2023-09-01T19:48:32.620Z,22.65
2023-09-01T19:51:38.156Z,22.60
2023-09-01T19:54:40.095Z,22.53
2023-09-01T19:57:42.594Z,22.45
2023-09-01T20:00:45.565Z,22.38
2023-09-01T20:03:47.377Z,22.25
2023-09-01T20:06:49.113Z,22.21
2023-09-01T20:09:50.838Z,22.18
2023-09-01T20:12:52.903Z,22.19
2023-09-01T20:15:54.899Z,22.15
2023-09-01T20:18:57.659Z,22.04
2023-09-01T20:21:59.628Z,22.00
2023-09-01T20:25:03.698Z,21.94
2023-09-01T20:28:05.952Z,21.95
2023-09-01T20:31:07.763Z,21.93
2023-09-01T20:34:09.615Z,21.94
2023-09-01T20:37:11.702Z,21.94
2023-09-01T20:40:14.272Z,21.95
2023-09-01T20:43:17.439Z,21.95
2023-09-01T20:46:19.437Z,21.90
2023-09-01T20:49:21.378Z,21.94
2023-09-01T20:52:23.465Z,21.93
2023-09-01T20:55:25.629Z,21.92
2023-09-01T20:58:30.582Z,21.86
2023-09-01T21:01:32.753Z,21.72
2023-09-01T21:04:36.856Z,21.82
2023-09-01T21:07:39.819Z,21.77
2023-09-01T21:10:41.543Z,21.73
2023-09-01T21:13:43.304Z,21.70
2023-09-01T21:16:45.146Z,21.65
2023-09-01T21:19:46.965Z,21.63
2023-09-01T21:22:48.710Z,21.63
2023-09-01T21:25:50.449Z,21.60
2023-09-01T21:28:52.258Z,21.55
2023-09-01T21:31:54.482Z,21.55
2023-09-01T21:34:56.842Z,21.47
2023-09-01T21:37:58.649Z,21.39
2023-09-01T21:41:00.373Z,21.32
2023-09-01T21:44:02.575Z,21.29
2023-09-01T21:47:05.041Z,21.23
2023-09-01T21:50:07.687Z,21.17
2023-09-01T21:53:09.453Z,21.16
2023-09-01T21:56:11.261Z,21.15
2023-09-01T21:59:13.024Z,21.12
2023-09-01T22:02:14.937Z,21.09
2023-09-01T22:05:16.732Z,21.05
2023-09-01T22:08:18.671Z,20.95
2023-09-01T22:11:20.345Z,20.94
2023-09-01T22:14:22.029Z,20.87
2023-09-01T22:17:23.767Z,20.83
2023-09-01T22:20:25.850Z,20.80
2023-09-01T22:23:27.698Z,20.74
2023-09-01T22:26:29.391Z,20.70
2023-09-01T22:29:31.342Z,20.63
2023-09-01T22:32:33.455Z,20.60
2023-09-01T22:35:35.518Z,20.56
2023-09-01T22:38:37.270Z,20.54
2023-09-01T22:41:38.985Z,20.25
2023-09-01T22:44:40.725Z,20.47
2023-09-01T22:47:42.564Z,20.46
2023-09-01T22:50:44.554Z,20.47
2023-09-01T22:53:46.919Z,20.47
2023-09-01T22:56:48.539Z,20.47
2023-09-01T22:59:52.615Z,20.47
2023-09-01T23:02:54.732Z,20.45
2023-09-01T23:05:56.530Z,20.46
2023-09-01T23:08:58.636Z,20.45
2023-09-01T23:12:00.418Z,20.42
2023-09-01T23:15:02.203Z,20.43
2023-09-01T23:18:04.247Z,20.44
2023-09-01T23:21:05.975Z,20.44
2023-09-01T23:24:07.977Z,20.45
2023-09-01T23:27:09.607Z,20.46
2023-09-01T23:30:11.966Z,20.42
2023-09-01T23:33:13.831Z,20.38
2023-09-01T23:36:15.905Z,20.36
2023-09-01T23:39:17.959Z,20.34
2023-09-01T23:42:19.663Z,20.38
2023-09-01T23:45:21.440Z,20.37
2023-09-01T23:48:23.179Z,20.34
2023-09-01T23:51:24.871Z,20.31
2023-09-01T23:54:26.634Z,20.29
2023-09-01T23:57:28.288Z,20.26
